createdAt,value
2023-04-26T00:00:55.122Z,529.00
2023-04-26T00:01:55.116Z,528.00
2023-04-26T00:02:55.234Z,530.00
2023-04-26T00:03:55.242Z,530.00
2023-04-26T00:04:55.374Z,530.00
2023-04-26T00:05:55.202Z,528.00
2023-04-26T00:06:55.120Z,527.00
2023-04-26T00:07:55.119Z,525.00
2023-04-26T00:08:55.350Z,524.00
2023-04-26T00:09:55.086Z,525.00
2023-04-26T00:10:55.082Z,525.00
2023-04-26T00:11:57.450Z,523.00
2023-04-26T00:12:54.718Z,523.00
2023-04-26T00:13:54.702Z,521.00
2023-04-26T00:14:54.694Z,523.00
2023-04-26T00:15:54.709Z,520.00
2023-04-26T00:16:54.723Z,519.00
2023-04-26T00:17:54.760Z,520.00
2023-04-26T00:18:55.022Z,520.00
2023-04-26T00:19:54.675Z,520.00
2023-04-26T00:20:54.681Z,522.00
2023-04-26T00:21:54.665Z,524.00
2023-04-26T00:22:54.667Z,525.00
2023-04-26T00:23:54.677Z,523.00
2023-04-26T00:24:54.658Z,524.00
2023-04-26T00:25:54.648Z,524.00
2023-04-26T00:26:54.666Z,526.00
2023-04-26T00:27:54.647Z,523.00
2023-04-26T00:28:54.953Z,523.00
2023-04-26T00:29:54.641Z,523.00
2023-04-26T00:30:54.628Z,525.00
2023-04-26T00:31:54.655Z,522.00
2023-04-26T00:32:54.650Z,521.00
2023-04-26T00:33:54.631Z,522.00
2023-04-26T00:34:54.616Z,523.00
2023-04-26T00:35:54.601Z,523.00
2023-04-26T00:36:54.647Z,522.00
2023-04-26T00:37:54.617Z,525.00
2023-04-26T00:38:54.928Z,526.00
2023-04-26T00:39:55.091Z,526.00
2023-04-26T00:40:55.124Z,523.00
2023-04-26T00:41:55.121Z,523.00
2023-04-26T00:42:55.229Z,521.00
2023-04-26T00:43:55.132Z,520.00
2023-04-26T00:44:55.135Z,522.00
2023-04-26T00:45:55.169Z,522.00
2023-04-26T00:46:55.128Z,523.00
2023-04-26T00:47:55.179Z,525.00
2023-04-26T00:48:55.127Z,526.00
2023-04-26T00:49:55.156Z,525.00
2023-04-26T00:50:55.196Z,526.00
2023-04-26T00:51:55.242Z,527.00
2023-04-26T00:52:55.966Z,527.00
2023-04-26T00:53:55.338Z,526.00
2023-04-26T00:54:55.363Z,526.00
2023-04-26T00:55:55.483Z,524.00
2023-04-26T00:56:55.972Z,525.00
2023-04-26T00:57:56.467Z,524.00
2023-04-26T00:58:55.608Z,524.00
2023-04-26T00:59:55.584Z,524.00
2023-04-26T01:00:55.643Z,523.00
2023-04-26T01:01:56.589Z,523.00
2023-04-26T01:02:55.798Z,522.00
2023-04-26T01:03:56.610Z,523.00
2023-04-26T01:04:55.810Z,524.00
2023-04-26T01:05:55.897Z,525.00
2023-04-26T01:06:55.859Z,527.00
2023-04-26T01:07:55.905Z,526.00
2023-04-26T01:08:55.939Z,524.00
2023-04-26T01:09:55.996Z,523.00
2023-04-26T01:10:56.040Z,523.00
2023-04-26T01:11:56.088Z,519.00
2023-04-26T01:12:56.120Z,516.00
2023-04-26T01:13:56.165Z,516.00
2023-04-26T01:14:56.251Z,519.00
2023-04-26T01:15:56.252Z,519.00
2023-04-26T01:16:56.385Z,520.00
2023-04-26T01:17:56.439Z,521.00
2023-04-26T01:18:56.375Z,521.00
2023-04-26T01:19:56.411Z,521.00
2023-04-26T01:20:56.435Z,521.00
2023-04-26T01:21:56.482Z,520.00
2023-04-26T01:22:56.537Z,522.00
2023-04-26T01:23:56.568Z,521.00
2023-04-26T01:24:56.609Z,522.00
2023-04-26T01:25:56.654Z,521.00
2023-04-26T01:26:56.691Z,524.00
2023-04-26T01:27:56.744Z,524.00
2023-04-26T01:28:56.777Z,525.00
2023-04-26T01:29:57.476Z,521.00
2023-04-26T01:30:56.971Z,519.00
2023-04-26T01:31:56.903Z,517.00
2023-04-26T01:32:57.024Z,515.00
2023-04-26T01:33:57.480Z,514.00
2023-04-26T01:34:57.025Z,511.00
2023-04-26T01:35:57.092Z,512.00
2023-04-26T01:36:57.974Z,512.00
2023-04-26T01:37:57.162Z,513.00
2023-04-26T01:38:57.192Z,514.00
2023-04-26T01:39:57.237Z,514.00
2023-04-26T01:40:57.279Z,512.00
2023-04-26T01:42:03.975Z,509.00
2023-04-26T01:42:57.300Z,505.00
2023-04-26T01:43:57.285Z,502.00
2023-04-26T01:44:57.280Z,500.00
2023-04-26T01:45:57.497Z,498.00
2023-04-26T01:46:57.281Z,497.00
2023-04-26T01:47:57.283Z,501.00
2023-04-26T01:48:57.228Z,503.00
2023-04-26T01:49:57.201Z,503.00
2023-04-26T01:50:57.977Z,504.00
2023-04-26T01:51:57.193Z,505.00
2023-04-26T01:52:57.177Z,505.00
2023-04-26T01:53:57.981Z,504.00
2023-04-26T01:54:57.152Z,507.00
2023-04-26T01:55:57.166Z,506.00
2023-04-26T01:56:57.140Z,503.00
2023-04-26T01:57:57.127Z,504.00
2023-04-26T01:58:57.123Z,506.00
2023-04-26T01:59:57.118Z,505.00
2023-04-26T02:00:57.163Z,503.00
2023-04-26T02:01:57.235Z,503.00
2023-04-26T02:02:57.328Z,503.00
2023-04-26T02:03:57.267Z,503.00
2023-04-26T02:05:00.285Z,501.00
2023-04-26T02:06:00.177Z,501.00
2023-04-26T02:06:57.491Z,499.00
2023-04-26T02:07:57.982Z,498.00
2023-04-26T02:08:57.271Z,499.00
2023-04-26T02:09:57.270Z,500.00
2023-04-26T02:10:57.248Z,500.00
2023-04-26T02:11:57.252Z,500.00
2023-04-26T02:12:57.237Z,500.00
2023-04-26T02:13:57.245Z,499.00
2023-04-26T02:14:57.497Z,499.00
2023-04-26T02:15:57.248Z,501.00
2023-04-26T02:16:57.987Z,499.00
2023-04-26T02:17:57.225Z,501.00
2023-04-26T02:18:57.222Z,500.00
2023-04-26T02:19:57.190Z,499.00
2023-04-26T02:20:57.163Z,498.00
2023-04-26T02:21:57.228Z,498.00
2023-04-26T02:22:57.145Z,497.00
2023-04-26T02:23:57.994Z,498.00
2023-04-26T02:24:57.126Z,498.00
2023-04-26T02:25:57.148Z,499.00
2023-04-26T02:26:57.188Z,499.00
2023-04-26T02:27:57.230Z,501.00
2023-04-26T02:28:57.269Z,501.00
2023-04-26T02:29:57.304Z,500.00
2023-04-26T02:30:57.379Z,497.00
2023-04-26T02:31:57.409Z,497.00
2023-04-26T02:32:57.453Z,499.00
2023-04-26T02:33:57.451Z,496.00
2023-04-26T02:34:57.508Z,497.00
2023-04-26T02:35:57.548Z,498.00
2023-04-26T02:36:57.569Z,496.00
2023-04-26T02:37:57.619Z,496.00
2023-04-26T02:38:57.651Z,497.00
2023-04-26T02:39:57.688Z,497.00
2023-04-26T02:41:00.509Z,496.00
2023-04-26T02:41:57.726Z,497.00
2023-04-26T02:42:57.718Z,499.00
2023-04-26T02:43:57.703Z,501.00
2023-04-26T02:44:57.701Z,500.00
2023-04-26T02:45:57.690Z,500.00
2023-04-26T02:46:57.713Z,503.00
2023-04-26T02:47:57.713Z,504.00
2023-04-26T02:48:57.678Z,504.00
2023-04-26T02:49:57.658Z,506.00
2023-04-26T02:50:57.692Z,508.00
2023-04-26T02:51:57.656Z,508.00
2023-04-26T02:52:57.636Z,507.00
2023-04-26T02:53:57.627Z,506.00
2023-04-26T02:55:00.504Z,503.00
2023-04-26T02:55:57.598Z,503.00
2023-04-26T02:56:57.576Z,505.00
2023-04-26T02:57:57.574Z,506.00
2023-04-26T02:58:57.558Z,506.00
2023-04-26T02:59:57.549Z,505.00
2023-04-26T03:00:59.504Z,506.00
2023-04-26T03:01:57.541Z,505.00
2023-04-26T03:04:15.550Z,465.00
2023-04-26T03:05:16.402Z,472.00
2023-04-26T03:06:16.548Z,474.00
2023-04-26T03:07:23.088Z,476.00
2023-04-26T03:08:16.657Z,476.00
2023-04-26T03:09:16.373Z,480.00
2023-04-26T03:10:16.369Z,483.00
2023-04-26T03:11:16.365Z,484.00
2023-04-26T03:12:16.368Z,481.00
2023-04-26T03:13:16.362Z,481.00
2023-04-26T03:14:16.351Z,482.00
2023-04-26T03:15:16.369Z,480.00
2023-04-26T03:16:16.408Z,480.00
2023-04-26T03:17:16.346Z,479.00
2023-04-26T03:18:16.354Z,477.00
2023-04-26T03:19:16.343Z,476.00
2023-04-26T03:20:17.101Z,475.00
2023-04-26T03:21:16.326Z,474.00
2023-04-26T03:22:16.445Z,476.00
2023-04-26T03:23:16.310Z,477.00
2023-04-26T03:24:16.305Z,477.00
2023-04-26T03:25:16.294Z,477.00
2023-04-26T03:26:16.285Z,478.00
2023-04-26T03:27:16.292Z,479.00
2023-04-26T03:28:16.333Z,477.00
2023-04-26T03:29:16.364Z,476.00
2023-04-26T03:30:16.402Z,476.00
2023-04-26T03:31:16.440Z,477.00
2023-04-26T03:32:16.565Z,478.00
2023-04-26T03:33:16.519Z,479.00
2023-04-26T03:34:16.554Z,475.00
2023-04-26T03:35:16.599Z,475.00
2023-04-26T03:36:16.628Z,473.00
2023-04-26T03:37:17.601Z,471.00
2023-04-26T03:38:16.721Z,470.00
2023-04-26T03:39:16.744Z,471.00
2023-04-26T03:40:16.776Z,472.00
2023-04-26T03:41:16.810Z,470.00
2023-04-26T03:42:16.848Z,470.00
2023-04-26T03:43:23.610Z,470.00
2023-04-26T03:44:17.134Z,469.00
2023-04-26T03:45:16.849Z,469.00
2023-04-26T03:46:17.645Z,470.00
2023-04-26T03:47:16.842Z,468.00
2023-04-26T03:48:16.846Z,467.00
2023-04-26T03:49:16.863Z,466.00
2023-04-26T03:50:16.808Z,467.00
2023-04-26T03:51:16.797Z,467.00
2023-04-26T03:52:17.609Z,469.00
2023-04-26T03:53:16.783Z,471.00
2023-04-26T03:54:16.792Z,472.00
2023-04-26T03:55:16.764Z,470.00
2023-04-26T03:56:16.756Z,471.00
2023-04-26T03:57:16.750Z,471.00
2023-04-26T03:59:28.391Z,474.00
2023-04-26T04:00:31.882Z,472.00
2023-04-26T04:01:29.233Z,472.00
2023-04-26T04:02:29.424Z,475.00
2023-04-26T04:03:29.409Z,477.00
2023-04-26T04:04:29.383Z,478.00
2023-04-26T04:05:36.053Z,478.00
2023-04-26T04:06:29.175Z,476.00
2023-04-26T04:07:35.884Z,476.00
2023-04-26T04:08:29.883Z,477.00
2023-04-26T04:09:29.509Z,475.00
2023-04-26T04:10:29.137Z,475.00
2023-04-26T04:11:29.131Z,475.00
2023-04-26T04:12:29.093Z,478.00
2023-04-26T04:13:35.897Z,474.00
2023-04-26T04:14:29.392Z,476.00
2023-04-26T04:15:29.993Z,475.00
2023-04-26T04:16:29.109Z,475.00
2023-04-26T04:17:29.042Z,474.00
2023-04-26T04:18:29.011Z,477.00
2023-04-26T04:19:29.013Z,475.00
2023-04-26T04:20:28.986Z,478.00
2023-04-26T04:21:29.884Z,477.00
2023-04-26T04:22:28.965Z,478.00
2023-04-26T04:23:35.885Z,478.00
2023-04-26T04:24:28.948Z,476.00
2023-04-26T04:25:28.959Z,477.00
2023-04-26T04:26:28.954Z,478.00
2023-04-26T04:27:28.921Z,478.00
2023-04-26T04:28:28.910Z,477.00
2023-04-26T04:29:29.400Z,476.00
2023-04-26T04:30:28.898Z,477.00
2023-04-26T04:31:28.924Z,480.00
2023-04-26T04:32:29.167Z,480.00
2023-04-26T04:33:29.120Z,479.00
2023-04-26T04:34:29.125Z,476.00
2023-04-26T04:35:29.144Z,474.00
2023-04-26T04:36:29.118Z,475.00
2023-04-26T04:37:29.120Z,475.00
2023-04-26T04:38:29.123Z,474.00
2023-04-26T04:39:31.894Z,475.00
2023-04-26T04:40:29.127Z,474.00
2023-04-26T04:41:29.199Z,473.00
2023-04-26T04:42:29.182Z,474.00
2023-04-26T04:43:28.979Z,474.00
2023-04-26T04:44:29.488Z,474.00
2023-04-26T04:45:28.899Z,473.00
2023-04-26T04:46:28.914Z,473.00
2023-04-26T04:47:28.916Z,472.00
2023-04-26T04:48:28.869Z,474.00
2023-04-26T04:49:28.871Z,472.00
2023-04-26T04:50:28.851Z,475.00
2023-04-26T04:51:28.908Z,475.00
2023-04-26T04:52:28.848Z,474.00
2023-04-26T04:53:29.414Z,475.00
2023-04-26T04:54:29.399Z,472.00
2023-04-26T04:55:28.817Z,474.00
2023-04-26T04:56:28.817Z,474.00
2023-04-26T04:57:28.845Z,474.00
2023-04-26T04:58:28.799Z,474.00
2023-04-26T04:59:28.785Z,473.00
2023-04-26T05:00:28.928Z,473.00
2023-04-26T05:01:29.413Z,471.00
2023-04-26T05:02:28.809Z,473.00
2023-04-26T05:03:28.864Z,474.00
2023-04-26T05:04:28.925Z,475.00
2023-04-26T05:05:28.787Z,478.00
2023-04-26T05:06:28.818Z,478.00
2023-04-26T05:07:29.418Z,479.00
2023-04-26T05:08:29.411Z,479.00
2023-04-26T05:09:28.928Z,478.00
2023-04-26T05:10:28.966Z,477.00
2023-04-26T05:11:29.909Z,479.00
2023-04-26T05:12:29.029Z,479.00
2023-04-26T05:13:29.089Z,479.00
2023-04-26T05:14:29.417Z,480.00
2023-04-26T05:15:35.598Z,478.00
2023-04-26T05:16:29.458Z,480.00
2023-04-26T05:17:29.162Z,478.00
2023-04-26T05:18:29.125Z,478.00
2023-04-26T05:19:29.924Z,477.00
2023-04-26T05:20:29.931Z,475.00
2023-04-26T05:21:29.445Z,476.00
2023-04-26T05:22:29.134Z,476.00
2023-04-26T05:23:29.124Z,482.00
2023-04-26T05:24:29.136Z,489.00
2023-04-26T05:25:29.941Z,499.00
2023-04-26T05:26:29.123Z,503.00
2023-04-26T05:27:29.070Z,508.00
2023-04-26T05:28:29.054Z,514.00
2023-04-26T05:29:29.161Z,518.00
2023-04-26T05:30:29.429Z,523.00
2023-04-26T05:31:29.097Z,539.00
2023-04-26T05:32:29.020Z,543.00
2023-04-26T05:33:30.186Z,549.00
2023-04-26T05:34:29.192Z,553.00
2023-04-26T05:35:29.432Z,563.00
2023-04-26T05:36:30.072Z,573.00
2023-04-26T05:37:28.964Z,584.00
2023-04-26T05:38:28.964Z,587.00
2023-04-26T05:39:28.955Z,589.00
2023-04-26T05:40:29.438Z,597.00
2023-04-26T05:41:28.987Z,614.00
2023-04-26T05:42:28.998Z,618.00
2023-04-26T05:43:29.020Z,625.00
2023-04-26T05:44:29.023Z,626.00
2023-04-26T05:45:29.064Z,635.00
2023-04-26T05:46:29.065Z,639.00
2023-04-26T05:47:29.075Z,649.00
2023-04-26T05:48:29.030Z,656.00
2023-04-26T05:49:29.045Z,660.00
2023-04-26T05:50:29.455Z,661.00
2023-04-26T05:51:29.037Z,661.00
2023-04-26T05:52:29.039Z,670.00
2023-04-26T05:53:29.464Z,705.00
2023-04-26T05:54:29.033Z,712.00
2023-04-26T05:55:29.440Z,711.00
2023-04-26T05:56:29.036Z,718.00
2023-04-26T05:57:29.093Z,721.00
2023-04-26T05:58:29.465Z,723.00
2023-04-26T05:59:29.055Z,726.00
2023-04-26T06:00:32.240Z,731.00
2023-04-26T06:01:28.995Z,733.00
2023-04-26T06:02:29.587Z,732.00
2023-04-26T06:03:29.388Z,730.00
2023-04-26T06:04:29.114Z,731.00
2023-04-26T06:05:29.287Z,732.00
2023-04-26T06:06:28.965Z,731.00
2023-04-26T06:07:28.938Z,733.00
2023-04-26T06:08:28.928Z,730.00
2023-04-26T06:09:28.882Z,725.00
2023-04-26T06:10:28.970Z,722.00
2023-04-26T06:11:28.856Z,724.00
2023-04-26T06:12:28.845Z,726.00
2023-04-26T06:13:28.824Z,724.00
2023-04-26T06:14:30.741Z,724.00
2023-04-26T06:15:28.961Z,723.00
2023-04-26T06:16:28.928Z,722.00
2023-04-26T06:17:28.764Z,719.00
2023-04-26T06:18:28.732Z,717.00
2023-04-26T06:19:28.715Z,715.00
2023-04-26T06:20:29.573Z,715.00
2023-04-26T06:21:29.450Z,714.00
2023-04-26T06:22:28.673Z,712.00
2023-04-26T06:23:28.668Z,712.00
2023-04-26T06:24:30.484Z,714.00
2023-04-26T06:25:28.630Z,713.00
2023-04-26T06:26:28.947Z,713.00
2023-04-26T06:27:28.612Z,714.00
2023-04-26T06:28:28.596Z,715.00
2023-04-26T06:29:28.570Z,712.00
2023-04-26T06:30:28.600Z,710.00
2023-04-26T06:31:28.574Z,711.00
2023-04-26T06:32:28.605Z,710.00
2023-04-26T06:33:28.512Z,710.00
2023-04-26T06:34:28.487Z,713.00
2023-04-26T06:35:28.950Z,713.00
2023-04-26T06:36:28.480Z,712.00
2023-04-26T06:37:28.461Z,711.00
2023-04-26T06:38:28.681Z,709.00
2023-04-26T06:39:28.426Z,707.00
2023-04-26T06:40:28.411Z,709.00
2023-04-26T06:41:28.974Z,710.00
2023-04-26T06:42:28.951Z,712.00
2023-04-26T06:43:28.371Z,711.00
2023-04-26T06:44:28.360Z,709.00
2023-04-26T06:45:28.460Z,708.00
2023-04-26T06:46:28.369Z,707.00
2023-04-26T06:47:28.325Z,706.00
2023-04-26T06:48:28.341Z,705.00
2023-04-26T06:49:28.976Z,706.00
2023-04-26T06:50:28.959Z,704.00
2023-04-26T06:51:28.266Z,704.00
2023-04-26T06:52:28.265Z,703.00
2023-04-26T06:53:30.964Z,701.00
2023-04-26T06:54:28.230Z,700.00
2023-04-26T06:55:28.479Z,702.00
2023-04-26T06:56:28.205Z,701.00
2023-04-26T06:57:28.184Z,706.00
2023-04-26T06:58:28.163Z,707.00
2023-04-26T06:59:28.156Z,708.00
2023-04-26T07:00:28.996Z,708.00
2023-04-26T07:01:28.135Z,707.00
2023-04-26T07:02:28.612Z,708.00
2023-04-26T07:03:28.229Z,707.00
2023-04-26T07:04:28.299Z,705.00
2023-04-26T07:05:28.061Z,702.00
2023-04-26T07:06:28.066Z,702.00
2023-04-26T07:07:28.472Z,702.00
2023-04-26T07:08:28.672Z,703.00
2023-04-26T07:09:28.095Z,703.00
2023-04-26T07:10:28.018Z,702.00
2023-04-26T07:11:27.983Z,702.00
2023-04-26T07:12:29.501Z,703.00
2023-04-26T07:13:28.190Z,703.00
2023-04-26T07:14:28.030Z,702.00
2023-04-26T07:15:28.220Z,698.00
2023-04-26T07:16:29.111Z,698.00
2023-04-26T07:17:28.552Z,699.00
2023-04-26T07:18:28.481Z,699.00
2023-04-26T07:19:28.065Z,701.00
2023-04-26T07:20:28.093Z,700.00
2023-04-26T07:21:28.065Z,698.00
2023-04-26T07:22:28.075Z,698.00
2023-04-26T07:23:28.476Z,696.00
2023-04-26T07:24:28.087Z,691.00
2023-04-26T07:25:28.103Z,689.00
2023-04-26T07:26:28.096Z,689.00
2023-04-26T07:27:28.399Z,689.00
2023-04-26T07:28:29.977Z,689.00
2023-04-26T07:29:28.076Z,690.00
2023-04-26T07:30:28.685Z,690.00
2023-04-26T07:31:29.477Z,689.00
2023-04-26T07:32:28.144Z,690.00
2023-04-26T07:33:29.045Z,690.00
2023-04-26T07:34:27.998Z,715.00
2023-04-26T07:35:28.012Z,836.00
2023-04-26T07:36:28.056Z,802.00
2023-04-26T07:37:27.949Z,806.00
2023-04-26T07:38:27.979Z,831.00
2023-04-26T07:39:27.982Z,880.00
2023-04-26T07:40:28.554Z,870.00
2023-04-26T07:41:28.120Z,860.00
2023-04-26T07:42:28.293Z,868.00
2023-04-26T07:43:28.137Z,879.00
2023-04-26T07:44:29.168Z,899.00
2023-04-26T07:45:28.548Z,941.00
2023-04-26T07:46:28.244Z,952.00
2023-04-26T07:47:29.330Z,977.00
2023-04-26T07:48:28.343Z,990.00
2023-04-26T07:49:28.374Z,1005.00
2023-04-26T07:50:28.492Z,1011.00
2023-04-26T07:51:28.426Z,1023.00
2023-04-26T07:52:28.608Z,1179.00
2023-04-26T07:53:28.475Z,1180.00
2023-04-26T07:54:28.504Z,1173.00
2023-04-26T07:55:28.983Z,1290.00
2023-04-26T07:56:28.612Z,1298.00
2023-04-26T07:57:28.680Z,1214.00
2023-04-26T07:58:28.650Z,1135.00
2023-04-26T07:59:29.490Z,1091.00
2023-04-26T08:00:29.491Z,1056.00
2023-04-26T08:01:28.722Z,1030.00
2023-04-26T08:02:43.563Z,1014.00
2023-04-26T08:03:28.853Z,1003.00
2023-04-26T08:04:29.601Z,994.00
2023-04-26T08:05:29.322Z,989.00
2023-04-26T08:06:28.668Z,979.00
2023-04-26T08:07:28.665Z,972.00
2023-04-26T08:08:28.669Z,969.00
2023-04-26T08:09:28.630Z,965.00
2023-04-26T08:10:28.991Z,962.00
2023-04-26T08:11:28.660Z,958.00
2023-04-26T08:12:28.597Z,1055.00
2023-04-26T08:13:29.540Z,956.00
2023-04-26T08:14:28.566Z,944.00
2023-04-26T08:15:28.991Z,932.00
2023-04-26T08:16:28.556Z,920.00
2023-04-26T08:17:28.530Z,909.00
2023-04-26T08:18:28.516Z,908.00
2023-04-26T08:19:30.101Z,901.00
2023-04-26T08:20:28.998Z,894.00
2023-04-26T08:21:28.673Z,892.00
2023-04-26T08:22:28.731Z,894.00
2023-04-26T08:23:28.749Z,890.00
2023-04-26T08:24:28.908Z,883.00
2023-04-26T08:25:28.997Z,878.00
2023-04-26T08:26:28.818Z,870.00
2023-04-26T08:27:28.855Z,863.00
2023-04-26T08:28:28.874Z,854.00
2023-04-26T08:29:29.491Z,846.00
2023-04-26T08:30:28.930Z,838.00
2023-04-26T08:31:29.574Z,912.00
2023-04-26T08:32:29.257Z,879.00
2023-04-26T08:33:31.996Z,904.00
2023-04-26T08:34:29.202Z,992.00
2023-04-26T08:35:29.516Z,882.00
2023-04-26T08:36:31.528Z,887.00
2023-04-26T08:37:29.564Z,883.00
2023-04-26T08:38:28.928Z,874.00
2023-04-26T08:39:28.917Z,869.00
2023-04-26T08:40:29.149Z,856.00
2023-04-26T08:41:28.997Z,850.00
2023-04-26T08:42:28.887Z,847.00
2023-04-26T08:43:28.840Z,838.00
2023-04-26T08:44:28.886Z,832.00
2023-04-26T08:45:29.173Z,818.00
2023-04-26T08:46:28.814Z,792.00
2023-04-26T08:47:28.864Z,786.00
2023-04-26T08:48:28.773Z,793.00
2023-04-26T08:49:28.748Z,802.00
2023-04-26T08:50:29.017Z,903.00
2023-04-26T08:51:28.716Z,884.00
2023-04-26T08:52:29.515Z,887.00
2023-04-26T08:53:28.689Z,897.00
2023-04-26T08:54:27.658Z,960.00
2023-04-26T08:55:29.011Z,954.00
2023-04-26T08:56:28.656Z,973.00
2023-04-26T08:57:28.615Z,969.00
2023-04-26T08:58:28.597Z,999.00
2023-04-26T08:59:28.655Z,1007.00
2023-04-26T09:00:29.031Z,1011.00
2023-04-26T09:01:29.041Z,1030.00
2023-04-26T09:02:28.698Z,1042.00
2023-04-26T09:03:28.742Z,1160.00
2023-04-26T09:04:28.839Z,1139.00
2023-04-26T09:05:28.675Z,1150.00
2023-04-26T09:06:28.721Z,1164.00
2023-04-26T09:07:28.924Z,1165.00
2023-04-26T09:08:28.737Z,1170.00
2023-04-26T09:09:29.717Z,1316.00
2023-04-26T09:10:29.043Z,1283.00
2023-04-26T09:11:28.769Z,1275.00
2023-04-26T09:12:28.903Z,1273.00
2023-04-26T09:13:28.808Z,1282.00
2023-04-26T09:14:28.883Z,1314.00
2023-04-26T09:15:29.015Z,1435.00
2023-04-26T09:16:28.872Z,1422.00
2023-04-26T09:17:29.182Z,1411.00
2023-04-26T09:18:28.811Z,1402.00
2023-04-26T09:19:28.813Z,1410.00
2023-04-26T09:20:28.807Z,1499.00
2023-04-26T09:21:29.016Z,1519.00
2023-04-26T09:22:28.791Z,1536.00
2023-04-26T09:23:28.789Z,1553.00
2023-04-26T09:24:29.023Z,1550.00
2023-04-26T09:25:28.779Z,1649.00
2023-04-26T09:26:28.764Z,1635.00
2023-04-26T09:27:28.741Z,1622.00
2023-04-26T09:28:28.766Z,1336.00
2023-04-26T09:29:29.015Z,996.00
2023-04-26T09:30:28.802Z,917.00
2023-04-26T09:31:29.076Z,908.00
2023-04-26T09:32:28.810Z,795.00
2023-04-26T09:33:29.276Z,754.00
2023-04-26T09:34:29.237Z,683.00
2023-04-26T09:35:29.251Z,680.00
2023-04-26T09:36:29.533Z,706.00
2023-04-26T09:37:29.211Z,726.00
2023-04-26T09:38:29.208Z,741.00
2023-04-26T09:39:29.246Z,751.00
2023-04-26T09:40:29.191Z,843.00
2023-04-26T09:41:29.529Z,839.00
2023-04-26T09:42:29.242Z,825.00
2023-04-26T09:43:29.244Z,815.00
2023-04-26T09:44:29.242Z,808.00
2023-04-26T09:45:29.528Z,806.00
2023-04-26T09:46:29.363Z,808.00
2023-04-26T09:47:29.280Z,809.00
2023-04-26T09:48:29.288Z,808.00
2023-04-26T09:49:32.718Z,808.00
2023-04-26T09:50:29.263Z,812.00
2023-04-26T09:51:29.525Z,814.00
2023-04-26T09:52:29.232Z,815.00
2023-04-26T09:53:29.219Z,816.00
2023-04-26T09:54:29.175Z,888.00
2023-04-26T09:55:34.636Z,841.00
2023-04-26T09:56:29.568Z,829.00
2023-04-26T09:57:29.157Z,855.00
2023-04-26T09:58:29.096Z,834.00
2023-04-26T09:59:29.083Z,833.00
2023-04-26T10:00:29.553Z,913.00
2023-04-26T10:01:30.089Z,774.00
2023-04-26T10:02:29.116Z,776.00
2023-04-26T10:03:29.212Z,790.00
2023-04-26T10:04:29.412Z,807.00
2023-04-26T10:05:30.024Z,807.00
2023-04-26T10:06:29.026Z,803.00
2023-04-26T10:07:28.911Z,809.00
2023-04-26T10:08:29.255Z,818.00
2023-04-26T10:09:29.110Z,815.00
2023-04-26T10:10:28.827Z,819.00
2023-04-26T10:11:29.037Z,819.00
2023-04-26T10:12:28.833Z,812.00
2023-04-26T10:13:28.772Z,804.00
2023-04-26T10:14:28.745Z,801.00
2023-04-26T10:15:28.716Z,800.00
2023-04-26T10:16:29.335Z,799.00
2023-04-26T10:17:29.241Z,799.00
2023-04-26T10:18:28.658Z,795.00
2023-04-26T10:19:29.362Z,884.00
2023-04-26T10:20:28.606Z,839.00
2023-04-26T10:21:28.582Z,804.00
2023-04-26T10:22:29.274Z,791.00
2023-04-26T10:23:28.527Z,791.00
2023-04-26T10:24:28.517Z,797.00
2023-04-26T10:25:28.476Z,859.00
2023-04-26T10:26:28.543Z,826.00
2023-04-26T10:27:28.447Z,823.00
2023-04-26T10:28:28.416Z,829.00
2023-04-26T10:29:28.479Z,823.00
2023-04-26T10:30:28.744Z,819.00
2023-04-26T10:31:29.035Z,815.00
2023-04-26T10:32:28.775Z,817.00
2023-04-26T10:33:28.701Z,821.00
2023-04-26T10:34:28.368Z,827.00
2023-04-26T10:35:28.660Z,832.00
2023-04-26T10:36:28.542Z,838.00
2023-04-26T10:37:28.182Z,842.00
2023-04-26T10:38:28.892Z,842.00
2023-04-26T10:39:28.669Z,843.00
2023-04-26T10:40:28.573Z,845.00
2023-04-26T10:41:28.657Z,900.00
2023-04-26T10:42:28.961Z,894.00
2023-04-26T10:43:28.775Z,853.00
2023-04-26T10:44:28.759Z,849.00
2023-04-26T10:45:28.797Z,842.00
2023-04-26T10:46:28.828Z,837.00
2023-04-26T10:47:28.998Z,838.00
2023-04-26T10:48:28.885Z,842.00
2023-04-26T10:49:28.853Z,848.00
2023-04-26T10:50:28.502Z,837.00
2023-04-26T10:51:28.553Z,827.00
2023-04-26T10:52:28.566Z,827.00
2023-04-26T10:53:28.585Z,826.00
2023-04-26T10:54:28.622Z,830.00
2023-04-26T10:55:28.636Z,832.00
2023-04-26T10:56:28.680Z,836.00
2023-04-26T10:57:29.314Z,839.00
2023-04-26T10:58:28.711Z,840.00
2023-04-26T10:59:43.167Z,839.00
2023-04-26T11:00:31.371Z,836.00
2023-04-26T11:01:28.724Z,834.00
2023-04-26T11:02:28.784Z,836.00
2023-04-26T11:03:29.216Z,723.00
2023-04-26T11:04:28.728Z,567.00
2023-04-26T11:05:28.604Z,541.00
2023-04-26T11:06:29.065Z,523.00
2023-04-26T11:07:28.620Z,504.00
2023-04-26T11:08:29.054Z,492.00
2023-04-26T11:09:29.575Z,486.00
2023-04-26T11:10:28.642Z,489.00
2023-04-26T11:11:28.637Z,498.00
2023-04-26T11:12:28.647Z,507.00
2023-04-26T11:13:28.655Z,518.00
2023-04-26T11:14:28.650Z,527.00
2023-04-26T11:15:29.562Z,534.00
2023-04-26T11:16:29.207Z,545.00
2023-04-26T11:17:29.377Z,569.00
2023-04-26T11:18:28.605Z,583.00
2023-04-26T11:19:28.587Z,593.00
2023-04-26T11:20:29.085Z,611.00
2023-04-26T11:21:28.569Z,628.00
2023-04-26T11:22:28.548Z,650.00
2023-04-26T11:23:28.577Z,659.00
2023-04-26T11:24:28.513Z,676.00
2023-04-26T11:25:28.576Z,828.00
2023-04-26T11:26:28.498Z,793.00
2023-04-26T11:27:28.493Z,748.00
2023-04-26T11:28:28.475Z,742.00
2023-04-26T11:29:28.506Z,747.00
2023-04-26T11:30:28.575Z,752.00
2023-04-26T11:31:28.588Z,753.00
2023-04-26T11:32:28.628Z,753.00
2023-04-26T11:33:28.637Z,769.00
2023-04-26T11:34:28.666Z,902.00
2023-04-26T11:35:31.626Z,799.00
2023-04-26T11:36:28.671Z,786.00
2023-04-26T11:37:28.640Z,797.00
2023-04-26T11:38:28.613Z,816.00
2023-04-26T11:39:28.600Z,861.00
2023-04-26T11:40:28.570Z,928.00
2023-04-26T11:41:28.521Z,869.00
2023-04-26T11:42:28.494Z,878.00
2023-04-26T11:43:28.534Z,862.00
2023-04-26T11:44:28.444Z,866.00
2023-04-26T11:45:28.580Z,868.00
2023-04-26T11:46:28.419Z,871.00
2023-04-26T11:47:28.350Z,877.00
2023-04-26T11:48:28.319Z,885.00
2023-04-26T11:49:28.294Z,898.00
2023-04-26T11:50:28.264Z,904.00
2023-04-26T11:51:29.397Z,909.00
2023-04-26T11:52:28.193Z,912.00
2023-04-26T11:53:28.175Z,921.00
2023-04-26T11:54:28.138Z,929.00
2023-04-26T11:55:28.112Z,934.00
2023-04-26T11:56:28.077Z,941.00
2023-04-26T11:57:28.052Z,983.00
2023-04-26T11:58:28.028Z,984.00
2023-04-26T11:59:27.989Z,983.00
2023-04-26T12:00:28.081Z,987.00
2023-04-26T12:01:27.932Z,997.00
2023-04-26T12:02:27.995Z,1060.00
2023-04-26T12:03:28.310Z,1062.00
2023-04-26T12:04:30.008Z,1043.00
2023-04-26T12:05:27.817Z,1052.00
2023-04-26T12:06:27.741Z,1148.00
2023-04-26T12:07:27.723Z,1004.00
2023-04-26T12:08:28.092Z,952.00
2023-04-26T12:09:27.632Z,888.00
2023-04-26T12:10:27.597Z,853.00
2023-04-26T12:11:27.596Z,757.00
2023-04-26T12:12:27.555Z,740.00
2023-04-26T12:13:27.534Z,728.00
2023-04-26T12:14:27.524Z,708.00
2023-04-26T12:15:27.506Z,689.00
2023-04-26T12:16:27.605Z,667.00
2023-04-26T12:17:27.544Z,656.00
2023-04-26T12:18:27.536Z,652.00
2023-04-26T12:19:28.079Z,653.00
2023-04-26T12:20:27.425Z,654.00
2023-04-26T12:21:30.344Z,729.00
2023-04-26T12:22:27.582Z,756.00
2023-04-26T12:23:27.443Z,765.00
2023-04-26T12:24:27.375Z,781.00
2023-04-26T12:25:27.358Z,809.00
2023-04-26T12:26:27.336Z,905.00
2023-04-26T12:27:27.592Z,887.00
2023-04-26T12:28:28.083Z,893.00
2023-04-26T12:29:27.243Z,900.00